Nissho Maru — JD2955 — position and weather

sailwx.info

Track history (hours):
 
Tides and Currents Weather Stations Pressure Air Temp Water Temp Dewpoint Dewpoint Depression Visibility Wind Speed Wind Dir Waves Ship Positions

Nissho Maru

Last reported at 2017-Dec-11 17:00 UTC. Time now 2017-Dec-13 14:56 UTC.
Position N 35°31' E 139°50'.

Length 99 m; draft 6.4 m.

Type: Tanker. MMSI: 431001006.

Date/timePositionNaut miles runAvg speedWind from/ knotsBaromVisibWave heightAir tempDewpointWater temp
2017-Dec-11 17:00N 35°31' E 139°50'0 0.0
2017-Dec-11 16:28N 35°31' E 139°50'0 0.0
2017-Dec-11 16:00N 35°31' E 139°50'0 0.1
2017-Dec-11 15:28N 35°31' E 139°50'0 0.0
2017-Dec-11 15:00N 35°31' E 139°50'0 0.1
2017-Dec-11 14:29N 35°31' E 139°50'0 0.1
2017-Dec-11 13:59N 35°31' E 139°50'0 0.0
2017-Dec-11 13:30N 35°31' E 139°50'0 0.0
2017-Dec-11 12:58N 35°31' E 139°50'0 0.1
2017-Dec-11 12:31N 35°31' E 139°50'0 0.1
2017-Dec-11 11:59N 35°31' E 139°50'0 0.0
2017-Dec-11 11:30N 35°31' E 139°50'0 0.0
2017-Dec-11 10:59N 35°31' E 139°50'0 0.0
2017-Dec-11 10:30N 35°31' E 139°50'0 0.0
2017-Dec-11 09:59N 35°31' E 139°50'0 0.0
2017-Dec-11 09:30N 35°31' E 139°50'0 0.0
2017-Dec-11 08:59N 35°31' E 139°50'0 0.0
2017-Dec-11 08:28N 35°31' E 139°50'0 0.0
2017-Dec-11 07:58N 35°31' E 139°50'2 4.8
2017-Dec-11 07:31N 35°32' E 139°48'0 0.3
2017-Dec-11 07:00N 35°32' E 139°48'0 0.0
2017-Dec-11 06:28N 35°32' E 139°48'0 0.0
2017-Dec-11 05:58N 35°32' E 139°48'0 0.0
2017-Dec-11 05:28N 35°32' E 139°48'0 0.0
2017-Dec-11 04:58N 35°32' E 139°48'0 0.0
2017-Dec-11 04:25N 35°32' E 139°48'0 0.0
2017-Dec-11 03:58N 35°32' E 139°48'1 2.1
2017-Dec-11 03:30N 35°31' E 139°48'2 3.1
2017-Dec-11 02:58N 35°31' E 139°50'0 0.3
2017-Dec-11 02:29N 35°31' E 139°51'0 0.1
2017-Dec-11 02:01N 35°31' E 139°50'0 0.1
2017-Dec-11 01:30N 35°31' E 139°51'0 0.0
2017-Dec-11 01:00N 35°31' E 139°51'0 0.0
2017-Dec-10 23:39N 35°31' E 139°51'0 0.0
2017-Dec-10 23:30N 35°31' E 139°51'0 0.0
2017-Dec-10 22:57N 35°31' E 139°51'0 0.0
2017-Dec-10 22:15N 35°31' E 139°51'0 0.0
2017-Dec-10 22:00N 35°31' E 139°51'0 0.0
2017-Dec-10 21:21N 35°31' E 139°51'0 0.0
2017-Dec-10 20:51N 35°31' E 139°51'0 0.0
2017-Dec-10 20:27N 35°31' E 139°51'0 0.0
2017-Dec-10 19:51N 35°31' E 139°51'0 0.0
2017-Dec-10 19:27N 35°31' E 139°51'0 0.0
2017-Dec-10 18:54N 35°31' E 139°51'0 0.0
2017-Dec-10 18:30N 35°31' E 139°51'0 0.0
2017-Dec-10 17:54N 35°31' E 139°51'0 0.0
2017-Dec-10 17:30N 35°31' E 139°51'0 0.0
2017-Dec-10 17:00N 35°31' E 139°51'0 0.0
2017-Dec-10 16:30N 35°31' E 139°51'0 0.0
2017-Dec-10 16:00N 35°31' E 139°51'0 0.0
2017-Dec-10 15:21N 35°31' E 139°51'0 0.0
2017-Dec-10 15:00N 35°31' E 139°51'0 0.0
2017-Dec-10 14:27N 35°31' E 139°51'0 0.0
2017-Dec-10 13:51N 35°31' E 139°51'0 0.3
2017-Dec-10 13:30N 35°31' E 139°50'510.0
2017-Dec-10 13:00N 35°31' E 139°57'4 8.2
2017-Dec-10 12:30N 35°29' E 140°01'0 0.0
2017-Dec-10 12:00N 35°29' E 140°01'0 0.0
2017-Dec-10 11:30N 35°29' E 140°01'0 0.0
2017-Dec-10 11:00N 35°29' E 140°01'0 0.0
2017-Dec-10 10:30N 35°29' E 140°01'0 0.0
2017-Dec-10 10:00N 35°29' E 140°01'0 0.0
2017-Dec-10 09:30N 35°29' E 140°01'0 0.0
2017-Dec-10 09:00N 35°29' E 140°01'0 0.0
2017-Dec-10 08:30N 35°29' E 140°01'0 0.0
2017-Dec-10 08:00N 35°29' E 140°01'0 0.0
2017-Dec-10 07:30N 35°29' E 140°01'0 0.0
2017-Dec-10 07:00N 35°29' E 140°01'0 0.9
2017-Dec-10 06:30N 35°29' E 140°00'610.8
2017-Dec-10 05:58N 35°30' E 139°53'510.2
2017-Dec-10 05:31N 35°32' E 139°48'0 0.1
2017-Dec-10 04:58N 35°32' E 139°48'0 0.0
2017-Dec-10 04:28N 35°32' E 139°48'0 0.0
2017-Dec-10 03:58N 35°32' E 139°48'0 0.0
2017-Dec-10 03:28N 35°32' E 139°48'0 0.0
2017-Dec-10 02:58N 35°32' E 139°48'0 0.0
2017-Dec-10 02:28N 35°32' E 139°48'0 0.0
2017-Dec-10 01:58N 35°32' E 139°48'0 0.0
2017-Dec-10 01:25N 35°32' E 139°48'0 0.0
2017-Dec-10 00:58N 35°32' E 139°48'1 2.0
2017-Dec-10 00:30N 35°31' E 139°48'2 4.2
2017-Dec-10 00:00N 35°30' E 139°51'1 2.8
2017-Dec-09 23:30N 35°29' E 139°52'613.0
2017-Dec-09 23:01N 35°24' E 139°47'612.8
2017-Dec-09 22:30N 35°18' E 139°44'612.5
2017-Dec-09 22:00N 35°12' E 139°47'714.4
2017-Dec-09 21:30N 35°05' E 139°45'714.6
2017-Dec-09 21:00N 34°58' E 139°43'713.8
2017-Dec-09 20:30N 34°53' E 139°48'1011.8
2017-Dec-09 19:39N 34°54' E 140°00'213.5
2017-Dec-09 19:30N 34°55' E 140°03'913.7
2017-Dec-09 18:51N 34°59' E 140°12'1 0.0
2017-Dec-08 18:00N 34°60' E 140°13'813.8
2017-Dec-08 17:23N 34°55' E 140°04'1113.1
2017-Dec-08 16:31N 34°52' E 139°51'214.7
2017-Dec-08 16:25N 34°52' E 139°49'615.7
2017-Dec-08 16:00N 34°57' E 139°43'714.9
2017-Dec-08 15:31N 35°04' E 139°43'714.9
2017-Dec-08 15:00N 35°11' E 139°46'612.9
2017-Dec-08 14:30N 35°17' E 139°44'713.1
2017-Dec-08 14:00N 35°24' E 139°43'815.5
2017-Dec-08 13:30N 35°29' E 139°50'815.1
2017-Dec-08 13:01N 35°33' E 139°58'612.5
2017-Dec-08 12:30N 35°36' E 140°05'0 0.1
2017-Dec-08 11:58N 35°36' E 140°05'0 0.0
2017-Dec-08 11:28N 35°36' E 140°05'0 0.0
2017-Dec-08 10:58N 35°36' E 140°05'0 0.0
2017-Dec-08 10:28N 35°36' E 140°05'0 0.0
2017-Dec-08 09:58N 35°36' E 140°05'0 0.0
2017-Dec-08 09:28N 35°36' E 140°05'0 0.0
2017-Dec-08 08:58N 35°36' E 140°05'0 0.0
2017-Dec-08 08:28N 35°36' E 140°05'0 0.0
2017-Dec-08 07:58N 35°36' E 140°05'0 0.0
2017-Dec-08 07:28N 35°36' E 140°05'0 0.0
2017-Dec-08 06:58N 35°36' E 140°05'0 0.0
2017-Dec-08 06:28N 35°36' E 140°05'0 0.2
2017-Dec-08 05:58N 35°36' E 140°05'1 2.6
2017-Dec-08 05:30N 35°35' E 140°03'4 8.9
2017-Dec-08 05:00N 35°34' E 139°58'0 0.3
2017-Dec-08 04:29N 35°34' E 139°58'0 0.0
2017-Dec-08 03:59N 35°34' E 139°58'0 0.0
2017-Dec-08 03:23N 35°34' E 139°58'0 0.0
2017-Dec-08 02:59N 35°34' E 139°58'0 0.0
2017-Dec-08 02:29N 35°34' E 139°58'0 0.0
2017-Dec-08 01:59N 35°34' E 139°58'0 0.0
2017-Dec-08 01:29N 35°34' E 139°58'0 0.1
2017-Dec-08 01:00N 35°34' E 139°58'612.8
2017-Dec-08 00:30N 35°29' E 139°52'714.3
2017-Dec-08 00:00N 35°24' E 139°46'612.5
2017-Dec-07 23:30N 35°18' E 139°44'613.0
2017-Dec-07 23:01N 35°12' E 139°47'714.1
2017-Dec-07 22:30N 35°05' E 139°45'714.3
2017-Dec-07 22:00N 34°58' E 139°43'611.9
2017-Dec-07 21:30N 34°53' E 139°47'1011.2
2017-Dec-07 20:35N 34°53' E 139°59'111.6
2017-Dec-07 20:28N 34°54' E 140°01'612.1
2017-Dec-07 19:59N 34°57' E 140°07'  
2017-Dec-04 00:13N 41°24' E 141°34'414.9
2017-Dec-03 23:58N 41°27' E 141°31'715.7
2017-Dec-03 23:30N 41°31' E 141°23'816.1
2017-Dec-03 23:00N 41°32' E 141°12'917.2
2017-Dec-03 22:30N 41°35' E 141°01'815.6
2017-Dec-03 22:00N 41°35' E 140°51'815.5
2017-Dec-03 21:30N 41°32' E 140°41'816.1
2017-Dec-03 21:00N 41°28' E 140°32'918.1
2017-Dec-03 20:29N 41°23' E 140°21'817.0
2017-Dec-03 20:00N 41°22' E 140°10'915.3
2017-Dec-03 19:26N 41°25' E 139°59'716.1
2017-Dec-03 19:01N 41°31' E 139°55'1016.0
2017-Dec-03 18:23N 41°41' E 139°52'615.3
2017-Dec-03 18:00N 41°46' E 139°50'714.8
2017-Dec-03 17:30N 41°53' E 139°48'714.8
2017-Dec-03 17:01N 42°00' E 139°45'1215.3
2017-Dec-03 16:13N 42°12' E 139°40'31 0.9
2017-Dec-02 04:58N 41°42' E 139°50'1010.5
2017-Dec-02 04:03N 41°33' E 139°54'1 9.9
2017-Dec-02 03:58N 41°32' E 139°55'910.0
2017-Dec-02 03:07N 41°24' E 139°59'2 8.4
2017-Dec-02 02:54N 41°23' E 140°01'11 9.4
2017-Dec-02 01:45N 41°23' E 140°15'311.8
2017-Dec-02 01:30N 41°24' E 140°19'612.9
2017-Dec-02 01:00N 41°27' E 140°26'611.1
2017-Dec-02 00:30N 41°29' E 140°33'612.5
2017-Dec-02 00:00N 41°32' E 140°40'713.0
2017-Dec-01 23:30N 41°34' E 140°49'611.9
2017-Dec-01 23:00N 41°36' E 140°56'612.0
2017-Dec-01 22:30N 41°34' E 141°04'612.4
2017-Dec-01 22:00N 41°31' E 141°11'713.6
2017-Dec-01 21:31N 41°28' E 141°19'713.4
2017-Dec-01 21:00N 41°28' E 141°28'912.8
2017-Dec-01 20:18N 41°20' E 141°32'514.1
2017-Dec-01 19:57N 41°15' E 141°34'614.5
2017-Dec-01 19:30N 41°09' E 141°37'  
Track history (hours):
 
Tides and Currents Weather Stations Pressure Air Temp Water Temp Dewpoint Dewpoint Depression Visibility Wind Speed Wind Dir Waves Ship Positions

Nissho Maru

Last reported at 2017-Dec-11 17:00 UTC. Time now 2017-Dec-13 14:56 UTC.
Position N 35°31' E 139°50'.

Length 99 m; draft 6.4 m.

Type: Tanker. MMSI: 431001006.

Date/timePositionNaut miles runAvg speedWind from/ knotsBaromVisibWave heightAir tempDewpointWater temp
2017-Dec-11 17:00N 35°31' E 139°50'0 0.0
2017-Dec-11 16:28N 35°31' E 139°50'0 0.0
2017-Dec-11 16:00N 35°31' E 139°50'0 0.1
2017-Dec-11 15:28N 35°31' E 139°50'0 0.0
2017-Dec-11 15:00N 35°31' E 139°50'0 0.1
2017-Dec-11 14:29N 35°31' E 139°50'0 0.1
2017-Dec-11 13:59N 35°31' E 139°50'0 0.0
2017-Dec-11 13:30N 35°31' E 139°50'0 0.0
2017-Dec-11 12:58N 35°31' E 139°50'0 0.1
2017-Dec-11 12:31N 35°31' E 139°50'0 0.1
2017-Dec-11 11:59N 35°31' E 139°50'0 0.0
2017-Dec-11 11:30N 35°31' E 139°50'0 0.0
2017-Dec-11 10:59N 35°31' E 139°50'0 0.0
2017-Dec-11 10:30N 35°31' E 139°50'0 0.0
2017-Dec-11 09:59N 35°31' E 139°50'0 0.0
2017-Dec-11 09:30N 35°31' E 139°50'0 0.0
2017-Dec-11 08:59N 35°31' E 139°50'0 0.0
2017-Dec-11 08:28N 35°31' E 139°50'0 0.0
2017-Dec-11 07:58N 35°31' E 139°50'2 4.8
2017-Dec-11 07:31N 35°32' E 139°48'0 0.3
2017-Dec-11 07:00N 35°32' E 139°48'0 0.0
2017-Dec-11 06:28N 35°32' E 139°48'0 0.0
2017-Dec-11 05:58N 35°32' E 139°48'0 0.0
2017-Dec-11 05:28N 35°32' E 139°48'0 0.0
2017-Dec-11 04:58N 35°32' E 139°48'0 0.0
2017-Dec-11 04:25N 35°32' E 139°48'0 0.0
2017-Dec-11 03:58N 35°32' E 139°48'1 2.1
2017-Dec-11 03:30N 35°31' E 139°48'2 3.1
2017-Dec-11 02:58N 35°31' E 139°50'0 0.3
2017-Dec-11 02:29N 35°31' E 139°51'0 0.1
2017-Dec-11 02:01N 35°31' E 139°50'0 0.1
2017-Dec-11 01:30N 35°31' E 139°51'0 0.0
2017-Dec-11 01:00N 35°31' E 139°51'0 0.0
2017-Dec-10 23:39N 35°31' E 139°51'0 0.0
2017-Dec-10 23:30N 35°31' E 139°51'0 0.0
2017-Dec-10 22:57N 35°31' E 139°51'0 0.0
2017-Dec-10 22:15N 35°31' E 139°51'0 0.0
2017-Dec-10 22:00N 35°31' E 139°51'0 0.0
2017-Dec-10 21:21N 35°31' E 139°51'0 0.0
2017-Dec-10 20:51N 35°31' E 139°51'0 0.0
2017-Dec-10 20:27N 35°31' E 139°51'0 0.0
2017-Dec-10 19:51N 35°31' E 139°51'0 0.0
2017-Dec-10 19:27N 35°31' E 139°51'0 0.0
2017-Dec-10 18:54N 35°31' E 139°51'0 0.0
2017-Dec-10 18:30N 35°31' E 139°51'0 0.0
2017-Dec-10 17:54N 35°31' E 139°51'0 0.0
2017-Dec-10 17:30N 35°31' E 139°51'0 0.0
2017-Dec-10 17:00N 35°31' E 139°51'0 0.0
2017-Dec-10 16:30N 35°31' E 139°51'0 0.0
2017-Dec-10 16:00N 35°31' E 139°51'0 0.0
2017-Dec-10 15:21N 35°31' E 139°51'0 0.0
2017-Dec-10 15:00N 35°31' E 139°51'0 0.0
2017-Dec-10 14:27N 35°31' E 139°51'0 0.0
2017-Dec-10 13:51N 35°31' E 139°51'0 0.3
2017-Dec-10 13:30N 35°31' E 139°50'510.0
2017-Dec-10 13:00N 35°31' E 139°57'4 8.2
2017-Dec-10 12:30N 35°29' E 140°01'0 0.0
2017-Dec-10 12:00N 35°29' E 140°01'0 0.0
2017-Dec-10 11:30N 35°29' E 140°01'0 0.0
2017-Dec-10 11:00N 35°29' E 140°01'0 0.0
2017-Dec-10 10:30N 35°29' E 140°01'0 0.0
2017-Dec-10 10:00N 35°29' E 140°01'0 0.0
2017-Dec-10 09:30N 35°29' E 140°01'0 0.0
2017-Dec-10 09:00N 35°29' E 140°01'0 0.0
2017-Dec-10 08:30N 35°29' E 140°01'0 0.0
2017-Dec-10 08:00N 35°29' E 140°01'0 0.0
2017-Dec-10 07:30N 35°29' E 140°01'0 0.0
2017-Dec-10 07:00N 35°29' E 140°01'0 0.9
2017-Dec-10 06:30N 35°29' E 140°00'610.8
2017-Dec-10 05:58N 35°30' E 139°53'510.2
2017-Dec-10 05:31N 35°32' E 139°48'0 0.1
2017-Dec-10 04:58N 35°32' E 139°48'0 0.0
2017-Dec-10 04:28N 35°32' E 139°48'0 0.0
2017-Dec-10 03:58N 35°32' E 139°48'0 0.0
2017-Dec-10 03:28N 35°32' E 139°48'0 0.0
2017-Dec-10 02:58N 35°32' E 139°48'0 0.0
2017-Dec-10 02:28N 35°32' E 139°48'0 0.0
2017-Dec-10 01:58N 35°32' E 139°48'0 0.0
2017-Dec-10 01:25N 35°32' E 139°48'0 0.0
2017-Dec-10 00:58N 35°32' E 139°48'1 2.0
2017-Dec-10 00:30N 35°31' E 139°48'2 4.2
2017-Dec-10 00:00N 35°30' E 139°51'1 2.8
2017-Dec-09 23:30N 35°29' E 139°52'613.0
2017-Dec-09 23:01N 35°24' E 139°47'612.8
2017-Dec-09 22:30N 35°18' E 139°44'612.5
2017-Dec-09 22:00N 35°12' E 139°47'714.4
2017-Dec-09 21:30N 35°05' E 139°45'714.6
2017-Dec-09 21:00N 34°58' E 139°43'713.8
2017-Dec-09 20:30N 34°53' E 139°48'1011.8
2017-Dec-09 19:39N 34°54' E 140°00'213.5
2017-Dec-09 19:30N 34°55' E 140°03'913.7
2017-Dec-09 18:51N 34°59' E 140°12'1 0.0
2017-Dec-08 18:00N 34°60' E 140°13'813.8
2017-Dec-08 17:23N 34°55' E 140°04'1113.1
2017-Dec-08 16:31N 34°52' E 139°51'214.7
2017-Dec-08 16:25N 34°52' E 139°49'615.7
2017-Dec-08 16:00N 34°57' E 139°43'714.9
2017-Dec-08 15:31N 35°04' E 139°43'714.9
2017-Dec-08 15:00N 35°11' E 139°46'612.9
2017-Dec-08 14:30N 35°17' E 139°44'713.1
2017-Dec-08 14:00N 35°24' E 139°43'815.5
2017-Dec-08 13:30N 35°29' E 139°50'815.1
2017-Dec-08 13:01N 35°33' E 139°58'612.5
2017-Dec-08 12:30N 35°36' E 140°05'0 0.1
2017-Dec-08 11:58N 35°36' E 140°05'0 0.0
2017-Dec-08 11:28N 35°36' E 140°05'0 0.0
2017-Dec-08 10:58N 35°36' E 140°05'0 0.0
2017-Dec-08 10:28N 35°36' E 140°05'0 0.0
2017-Dec-08 09:58N 35°36' E 140°05'0 0.0
2017-Dec-08 09:28N 35°36' E 140°05'0 0.0
2017-Dec-08 08:58N 35°36' E 140°05'0 0.0
2017-Dec-08 08:28N 35°36' E 140°05'0 0.0
2017-Dec-08 07:58N 35°36' E 140°05'0 0.0
2017-Dec-08 07:28N 35°36' E 140°05'0 0.0
2017-Dec-08 06:58N 35°36' E 140°05'0 0.0
2017-Dec-08 06:28N 35°36' E 140°05'0 0.2
2017-Dec-08 05:58N 35°36' E 140°05'1 2.6
2017-Dec-08 05:30N 35°35' E 140°03'4 8.9
2017-Dec-08 05:00N 35°34' E 139°58'0 0.3
2017-Dec-08 04:29N 35°34' E 139°58'0 0.0
2017-Dec-08 03:59N 35°34' E 139°58'0 0.0
2017-Dec-08 03:23N 35°34' E 139°58'0 0.0
2017-Dec-08 02:59N 35°34' E 139°58'0 0.0
2017-Dec-08 02:29N 35°34' E 139°58'0 0.0
2017-Dec-08 01:59N 35°34' E 139°58'0 0.0
2017-Dec-08 01:29N 35°34' E 139°58'0 0.1
2017-Dec-08 01:00N 35°34' E 139°58'612.8
2017-Dec-08 00:30N 35°29' E 139°52'714.3
2017-Dec-08 00:00N 35°24' E 139°46'612.5
2017-Dec-07 23:30N 35°18' E 139°44'613.0
2017-Dec-07 23:01N 35°12' E 139°47'714.1
2017-Dec-07 22:30N 35°05' E 139°45'714.3
2017-Dec-07 22:00N 34°58' E 139°43'611.9
2017-Dec-07 21:30N 34°53' E 139°47'1011.2
2017-Dec-07 20:35N 34°53' E 139°59'111.6
2017-Dec-07 20:28N 34°54' E 140°01'612.1
2017-Dec-07 19:59N 34°57' E 140°07'  
2017-Dec-04 00:13N 41°24' E 141°34'414.9
2017-Dec-03 23:58N 41°27' E 141°31'715.7
2017-Dec-03 23:30N 41°31' E 141°23'816.1
2017-Dec-03 23:00N 41°32' E 141°12'917.2
2017-Dec-03 22:30N 41°35' E 141°01'815.6
2017-Dec-03 22:00N 41°35' E 140°51'815.5
2017-Dec-03 21:30N 41°32' E 140°41'816.1
2017-Dec-03 21:00N 41°28' E 140°32'918.1
2017-Dec-03 20:29N 41°23' E 140°21'817.0
2017-Dec-03 20:00N 41°22' E 140°10'915.3
2017-Dec-03 19:26N 41°25' E 139°59'716.1
2017-Dec-03 19:01N 41°31' E 139°55'1016.0
2017-Dec-03 18:23N 41°41' E 139°52'615.3
2017-Dec-03 18:00N 41°46' E 139°50'714.8
2017-Dec-03 17:30N 41°53' E 139°48'714.8
2017-Dec-03 17:01N 42°00' E 139°45'1215.3
2017-Dec-03 16:13N 42°12' E 139°40'31 0.9
2017-Dec-02 04:58N 41°42' E 139°50'1010.5
2017-Dec-02 04:03N 41°33' E 139°54'1 9.9
2017-Dec-02 03:58N 41°32' E 139°55'910.0
2017-Dec-02 03:07N 41°24' E 139°59'2 8.4
2017-Dec-02 02:54N 41°23' E 140°01'11 9.4
2017-Dec-02 01:45N 41°23' E 140°15'311.8
2017-Dec-02 01:30N 41°24' E 140°19'612.9
2017-Dec-02 01:00N 41°27' E 140°26'611.1
2017-Dec-02 00:30N 41°29' E 140°33'612.5
2017-Dec-02 00:00N 41°32' E 140°40'713.0
2017-Dec-01 23:30N 41°34' E 140°49'611.9
2017-Dec-01 23:00N 41°36' E 140°56'612.0
2017-Dec-01 22:30N 41°34' E 141°04'612.4
2017-Dec-01 22:00N 41°31' E 141°11'713.6
2017-Dec-01 21:31N 41°28' E 141°19'713.4
2017-Dec-01 21:00N 41°28' E 141°28'912.8
2017-Dec-01 20:18N 41°20' E 141°32'514.1
2017-Dec-01 19:57N 41°15' E 141°34'614.5
2017-Dec-01 19:30N 41°09' E 141°37'  

Dump ship's entire track history